Time;durP1;ratioP1;P1;durP2;ratioP2;P2;SDS_P1;SDS_P2;PMS_P1;PMS_P2;Temp;Humidity;BMP_temperature;BMP_pressure;BME280_temperature;BME280_humidity;BME280_pressure;Samples;Min_cycle;Max_cycle;Signal;HPM_P1;HPM_P2
2022/07/29 00:01:42;;;;;;;;;;;;;;;27.13;35.85;100292.97;20698507;28;97909;-71
2022/07/29 00:11:43;;;;;;;;;;;;;;;27.05;36.12;100292.13;20684975;28;98010;-73
2022/07/29 00:21:43;;;;;;;;;;;;;;;27.03;36.53;100294.13;20719946;28;98065;-72
2022/07/29 00:31:43;;;;;;;;;;;;;;;26.95;36.50;100302.88;20689620;28;99427;-72
2022/07/29 00:41:44;;;;;;;;;;;;;;;26.91;36.90;100294.38;20735351;28;98611;-71
2022/07/29 00:51:44;;;;;;;;;;;;;;;26.87;36.50;100292.19;20701760;28;99678;-72
2022/07/29 01:01:45;;;;;;;;;;;;;;;26.76;37.17;100293.34;20682450;28;97930;-73
2022/07/29 01:11:48;;;;;;;;;;;;;;;26.75;36.88;100291.66;20675069;28;98566;-71
2022/07/29 01:21:54;;;;;;;;;;;;;;;26.66;37.48;100293.41;20742132;28;97128;-73
2022/07/29 01:31:57;;;;;;;;;;;;;;;26.61;37.35;100277.09;20865393;28;96662;-72
2022/07/29 01:41:58;;;;;;;;;;;;;;;26.55;37.37;100283.91;20699770;28;99708;-71
2022/07/29 01:52:10;;;;;;;;;;;;;;;26.54;37.58;100287.53;20689419;28;98609;-71
2022/07/29 02:02:13;;;;;;;;;;;;;;;26.40;38.29;100280.97;20799147;28;96923;-71
2022/07/29 02:12:14;;;;;;;;;;;;;;;26.41;38.44;100279.97;20905119;28;96391;-72
2022/07/29 02:22:16;;;;;;;;;;;;;;;26.31;38.50;100276.59;20814610;28;96863;-72
2022/07/29 02:32:17;;;;;;;;;;;;;;;26.21;38.77;100266.91;20765668;28;97320;-72
2022/07/29 02:42:18;;;;;;;;;;;;;;;26.23;38.68;100276.53;20691900;28;98475;-71
2022/07/29 02:52:21;;;;;;;;;;;;;;;26.15;38.64;100275.50;20710884;28;97671;-71
2022/07/29 03:02:22;;;;;;;;;;;;;;;26.15;39.04;100272.00;20683899;28;100630;-71
2022/07/29 03:12:23;;;;;;;;;;;;;;;26.11;39.11;100274.16;20696212;28;97882;-72
2022/07/29 03:22:24;;;;;;;;;;;;;;;26.02;39.28;100277.69;20717554;28;100620;-71
2022/07/29 03:32:24;;;;;;;;;;;;;;;25.99;39.32;100273.50;20844955;28;97108;-71
2022/07/29 03:42:27;;;;;;;;;;;;;;;25.91;39.65;100285.88;20725794;28;97249;-71
2022/07/29 03:52:27;;;;;;;;;;;;;;;25.87;39.92;100283.53;20761168;28;98501;-71
2022/07/29 04:02:27;;;;;;;;;;;;;;;25.79;40.38;100299.34;20680374;28;99886;-70
2022/07/29 04:12:28;;;;;;;;;;;;;;;25.79;40.65;100296.69;20664464;28;98790;-71
2022/07/29 04:22:28;;;;;;;;;;;;;;;25.72;41.13;100293.00;20670846;28;98481;-70
2022/07/29 04:32:28;;;;;;;;;;;;;;;25.74;41.16;100291.03;20658551;28;101579;-71
2022/07/29 04:42:28;;;;;;;;;;;;;;;25.65;41.18;100287.47;20679053;28;100841;-74
2022/07/29 04:52:29;;;;;;;;;;;;;;;25.65;40.87;100298.06;20688726;28;97780;-69
2022/07/29 05:02:29;;;;;;;;;;;;;;;25.67;41.23;100296.13;20667094;28;98659;-74
2022/07/29 05:12:29;;;;;;;;;;;;;;;25.78;41.25;100303.03;20703630;28;101329;-74
2022/07/29 05:22:30;;;;;;;;;;;;;;;25.84;41.47;100298.91;20680367;28;97753;-73
2022/07/29 05:32:30;;;;;;;;;;;;;;;25.93;41.39;100294.50;20688074;28;101193;-71
2022/07/29 05:42:30;;;;;;;;;;;;;;;25.92;40.83;100296.34;20699816;28;99089;-73
2022/07/29 05:52:33;;;;;;;;;;;;;;;25.94;40.70;100301.47;20740886;28;97801;-72
2022/07/29 06:02:33;;;;;;;;;;;;;;;25.94;40.59;100298.81;20710431;28;100878;-74
2022/07/29 06:12:34;;;;;;;;;;;;;;;26.00;40.47;100311.47;20715961;28;97918;-72
2022/07/29 06:22:35;;;;;;;;;;;;;;;26.05;40.34;100309.22;20729148;28;99707;-70
2022/07/29 06:32:36;;;;;;;;;;;;;;;26.12;40.42;100323.56;20785591;28;98206;-71
2022/07/29 06:42:37;;;;;;;;;;;;;;;26.21;40.17;100317.34;20757190;28;97698;-72
2022/07/29 06:52:38;;;;;;;;;;;;;;;26.29;40.19;100321.88;20806134;28;98066;-71
2022/07/29 07:02:38;;;;;;;;;;;;;;;26.33;39.66;100314.41;20715782;28;98822;-71
2022/07/29 07:12:38;;;;;;;;;;;;;;;26.43;39.82;100314.34;20740854;28;99798;-72
2022/07/29 07:22:39;;;;;;;;;;;;;;;26.51;39.57;100307.28;20777905;28;98017;-70
2022/07/29 07:32:40;;;;;;;;;;;;;;;26.60;39.91;100305.50;20807441;28;97964;-72
2022/07/29 07:42:40;;;;;;;;;;;;;;;26.71;40.31;100308.84;20785604;28;98473;-74
2022/07/29 07:52:46;;;;;;;;;;;;;;;26.80;39.77;100302.66;20757438;28;97487;-74
2022/07/29 08:02:47;;;;;;;;;;;;;;;26.90;39.69;100305.19;20809436;28;96628;-75
2022/07/29 08:12:47;;;;;;;;;;;;;;;26.98;39.98;100295.41;20776054;28;97324;-74
2022/07/29 08:22:47;;;;;;;;;;;;;;;27.06;39.88;100291.97;20723484;28;97346;-75
2022/07/29 08:32:50;;;;;;;;;;;;;;;27.13;39.44;100285.00;20742578;28;97934;-77
2022/07/29 08:42:50;;;;;;;;;;;;;;;27.21;39.68;100286.03;20717348;28;97957;-77
2022/07/29 08:52:51;;;;;;;;;;;;;;;27.28;39.50;100276.41;20769766;28;97483;-77
2022/07/29 09:02:56;;;;;;;;;;;;;;;27.33;39.34;100269.63;20810859;28;98050;-74
2022/07/29 09:12:56;;;;;;;;;;;;;;;27.41;38.74;100260.84;20761938;28;98017;-77
2022/07/29 09:22:56;;;;;;;;;;;;;;;27.50;38.58;100256.38;20736955;28;100233;-74
2022/07/29 09:32:58;;;;;;;;;;;;;;;27.56;38.41;100245.09;20904748;28;96600;-74
2022/07/29 09:43:09;;;;;;;;;;;;;;;27.63;37.86;100227.47;20802389;28;96800;-77
2022/07/29 09:53:09;;;;;;;;;;;;;;;27.76;36.14;100228.81;20810181;28;97634;-77
2022/07/29 10:03:10;;;;;;;;;;;;;;;27.82;36.58;100227.31;20865368;28;97840;-77
2022/07/29 10:13:13;;;;;;;;;;;;;;;27.88;35.99;100218.66;20860006;28;96356;-76
2022/07/29 10:23:14;;;;;;;;;;;;;;;27.92;35.03;100218.16;20733319;28;98281;-82
2022/07/29 10:33:15;;;;;;;;;;;;;;;27.98;35.22;100207.81;20699746;28;97917;-79
2022/07/29 10:43:22;;;;;;;;;;;;;;;28.06;35.39;100194.56;20712644;28;100132;-78
2022/07/29 10:53:23;;;;;;;;;;;;;;;28.16;35.68;100195.22;20722488;28;97251;-77
2022/07/29 11:03:42;;;;;;;;;;;;;;;28.19;35.31;100170.91;20724285;28;99334;-75
2022/07/29 11:13:42;;;;;;;;;;;;;;;28.24;35.35;100173.06;20719090;28;98880;-78
2022/07/29 11:23:45;;;;;;;;;;;;;;;28.27;35.09;100154.06;20737069;28;97786;-78
2022/07/29 11:33:46;;;;;;;;;;;;;;;28.34;34.02;100146.22;20746418;28;97788;-80
2022/07/29 11:43:51;;;;;;;;;;;;;;;28.43;35.14;100137.22;20721690;28;97907;-79
2022/07/29 11:53:51;;;;;;;;;;;;;;;28.50;34.71;100127.50;20720364;28;97517;-75
2022/07/29 12:04:01;;;;;;;;;;;;;;;28.59;34.81;100123.81;20716973;28;98081;-76
2022/07/29 12:14:02;;;;;;;;;;;;;;;28.66;34.33;100113.28;20754071;28;96841;-77
2022/07/29 12:24:03;;;;;;;;;;;;;;;28.72;34.52;100101.13;20815199;28;97791;-78
2022/07/29 12:34:03;;;;;;;;;;;;;;;28.78;35.76;100095.06;20756908;28;97843;-78
2022/07/29 12:44:03;;;;;;;;;;;;;;;28.85;35.71;100072.03;20718950;28;99525;-79
2022/07/29 12:54:13;;;;;;;;;;;;;;;28.99;34.68;100053.63;20712716;28;98002;-79
2022/07/29 13:04:28;;;;;;;;;;;;;;;29.08;35.64;100048.03;20694567;28;97954;-81
2022/07/29 13:14:35;;;;;;;;;;;;;;;29.18;33.94;100046.97;20762848;28;97675;-79
2022/07/29 13:24:47;;;;;;;;;;;;;;;29.30;33.19;100031.41;20804013;28;97699;-81
2022/07/29 13:34:47;;;;;;;;;;;;;;;29.38;32.80;100033.97;20728051;28;98165;-81
2022/07/29 13:44:50;;;;;;;;;;;;;;;29.44;32.91;100019.09;20804700;28;97360;-77
2022/07/29 13:54:54;;;;;;;;;;;;;;;29.50;32.81;100011.19;20802224;28;98398;-79
2022/07/29 14:04:54;;;;;;;;;;;;;;;29.57;32.28;99992.59;20721638;28;97488;-78
2022/07/29 14:14:56;;;;;;;;;;;;;;;29.61;32.27;99977.88;20823241;28;98662;-77
2022/07/29 14:24:56;;;;;;;;;;;;;;;29.64;31.85;99977.50;20850231;28;96697;-79
2022/07/29 14:35:04;;;;;;;;;;;;;;;29.64;31.77;99972.19;20741504;28;100093;-79
2022/07/29 14:45:06;;;;;;;;;;;;;;;29.64;31.91;99958.84;20720157;28;98240;-81
2022/07/29 14:55:06;;;;;;;;;;;;;;;29.69;31.40;99942.28;20711117;28;97872;-80
2022/07/29 15:05:07;;;;;;;;;;;;;;;29.73;31.67;99929.41;20792671;28;97734;-79
2022/07/29 15:15:07;;;;;;;;;;;;;;;29.78;31.20;99926.97;20770781;28;97343;-81
2022/07/29 15:25:09;;;;;;;;;;;;;;;29.82;31.66;99923.75;20750774;28;97746;-79
2022/07/29 15:35:10;;;;;;;;;;;;;;;29.85;31.34;99920.69;20756271;28;97917;-79
2022/07/29 15:45:12;;;;;;;;;;;;;;;29.87;30.99;99908.00;20920151;28;96204;-79
2022/07/29 15:55:23;;;;;;;;;;;;;;;29.90;31.28;99903.31;20986030;28;82603;-78
2022/07/29 16:05:23;;;;;;;;;;;;;;;29.93;30.92;99903.78;21433095;22;87146;-78
2022/07/29 16:15:24;;;;;;;;;;;;;;;29.93;31.00;99903.78;20972099;28;90605;-79
2022/07/29 16:35:37;;;;;;;;;;;;;;;29.92;30.98;99895.94;20802404;22;96227;-78
2022/07/29 16:45:38;;;;;;;;;;;;;;;29.89;31.10;99897.13;20760290;28;96278;-78
2022/07/29 16:55:38;;;;;;;;;;;;;;;29.87;31.23;99896.50;20807507;28;96355;-79
2022/07/29 17:05:38;;;;;;;;;;;;;;;29.83;31.55;99896.06;20815253;28;98260;-78
2022/07/29 17:15:41;;;;;;;;;;;;;;;29.81;32.95;99892.75;20776269;28;94280;-78
2022/07/29 17:25:41;;;;;;;;;;;;;;;29.77;33.36;99902.16;20748591;28;96343;-77
2022/07/29 17:46:02;;;;;;;;;;;;;;;29.92;31.03;99890.63;20773591;28;96348;-78
2022/07/29 17:56:03;;;;;;;;;;;;;;;30.02;29.82;99894.63;20778879;28;95964;-78
2022/07/29 18:06:03;;;;;;;;;;;;;;;30.13;30.17;99898.66;20805812;28;96328;-78
2022/07/29 18:16:06;;;;;;;;;;;;;;;30.15;30.88;99907.31;20789904;28;96768;-79
2022/07/29 18:26:06;;;;;;;;;;;;;;;30.13;31.05;99912.00;20754054;28;98101;-76
2022/07/29 18:36:07;;;;;;;;;;;;;;;30.10;31.86;99922.22;20624552;28;97691;-75
2022/07/29 18:46:07;;;;;;;;;;;;;;;30.03;32.36;99935.53;20571563;28;97808;-77
2022/07/29 18:56:09;;;;;;;;;;;;;;;29.98;32.23;99959.25;20630476;28;97679;-78
2022/07/29 19:06:10;;;;;;;;;;;;;;;29.92;32.10;99963.53;20597508;28;97977;-79
2022/07/29 19:16:12;;;;;;;;;;;;;;;29.87;33.16;99981.91;20628638;28;96944;-80
2022/07/29 19:26:12;;;;;;;;;;;;;;;29.78;33.40;99991.03;20600627;28;100801;-78
2022/07/29 19:36:13;;;;;;;;;;;;;;;29.74;33.59;99979.09;20563798;28;101253;-72
2022/07/29 19:46:13;;;;;;;;;;;;;;;29.66;34.08;99980.84;20662963;28;97326;-73
2022/07/29 19:56:13;;;;;;;;;;;;;;;29.60;34.41;99976.25;20675260;28;97939;-73
2022/07/29 20:06:14;;;;;;;;;;;;;;;29.51;34.56;99972.00;20656379;28;98210;-74
2022/07/29 20:16:15;;;;;;;;;;;;;;;29.44;34.78;99984.41;20650855;28;100615;-73
2022/07/29 20:26:16;;;;;;;;;;;;;;;29.37;35.05;99998.50;20576580;28;97445;-73
2022/07/29 20:36:16;;;;;;;;;;;;;;;29.36;35.47;99996.81;20578231;28;99502;-73
2022/07/29 20:46:17;;;;;;;;;;;;;;;29.33;35.63;100001.69;20604210;28;98859;-72
2022/07/29 20:56:17;;;;;;;;;;;;;;;29.29;35.74;100013.72;20551763;28;97862;-73
2022/07/29 21:06:17;;;;;;;;;;;;;;;29.27;36.33;100023.72;20574535;28;101275;-74
2022/07/29 21:16:18;;;;;;;;;;;;;;;29.23;36.78;100025.94;20636363;28;97180;-72
2022/07/29 21:26:19;;;;;;;;;;;;;;;29.18;37.25;100023.78;20630294;28;99497;-73
2022/07/29 21:36:19;;;;;;;;;;;;;;;29.13;37.71;100028.03;20650778;28;97693;-73
2022/07/29 21:46:20;;;;;;;;;;;;;;;28.90;38.30;100047.53;20650126;28;98708;-74
2022/07/29 21:56:20;;;;;;;;;;;;;;;28.88;38.19;100060.19;20566724;28;100031;-73
2022/07/29 22:06:20;;;;;;;;;;;;;;;28.86;38.28;100075.56;20576780;28;97721;-72
2022/07/29 22:16:21;;;;;;;;;;;;;;;28.86;38.35;100071.03;20602728;28;100664;-72
2022/07/29 22:26:21;;;;;;;;;;;;;;;28.73;39.09;100066.31;20632540;28;97048;-73
2022/07/29 22:36:21;;;;;;;;;;;;;;;28.59;39.60;100081.19;20581756;28;97711;-74
2022/07/29 22:46:22;;;;;;;;;;;;;;;28.43;40.34;100082.09;20626063;28;98740;-73
2022/07/29 22:56:22;;;;;;;;;;;;;;;28.27;40.76;100072.38;20573132;28;100931;-73
2022/07/29 23:06:22;;;;;;;;;;;;;;;28.10;41.35;100065.47;20519848;28;97842;-75
2022/07/29 23:16:22;;;;;;;;;;;;;;;27.94;41.78;100059.16;20547315;28;99311;-74
2022/07/29 23:26:23;;;;;;;;;;;;;;;27.80;42.24;100051.88;20764009;28;96244;-73
2022/07/29 23:36:23;;;;;;;;;;;;;;;27.68;42.19;100046.09;20691156;28;98199;-72
2022/07/29 23:46:23;;;;;;;;;;;;;;;27.65;42.65;100035.81;20586672;28;98478;-72
2022/07/29 23:56:24;;;;;;;;;;;;;;;27.70;42.55;100022.00;20526147;28;99114;-73
